Time;durP1;ratioP1;P1;durP2;ratioP2;P2;SDS_P1;SDS_P2;PMS_P1;PMS_P2;Temp;Humidity;BMP_temperature;BMP_pressure;BME280_temperature;BME280_humidity;BME280_pressure;Samples;Min_cycle;Max_cycle;Signal;HPM_P1;HPM_P2
2021/07/25 00:00:06;;;;;;;33.70;31.40;;;19.60;99.90;;;;;;5094359;28;20446;-71
2021/07/25 00:02:33;;;;;;;31.27;29.10;;;19.70;99.90;;;;;;5094129;28;20490;-71
2021/07/25 00:05:00;;;;;;;32.97;30.87;;;19.70;99.90;;;;;;5093983;28;20499;-71
2021/07/25 00:07:27;;;;;;;33.17;31.17;;;19.70;99.90;;;;;;5094152;28;20446;-71
2021/07/25 00:09:53;;;;;;;33.37;30.67;;;19.80;99.90;;;;;;5094092;28;20960;-72
2021/07/25 00:12:20;;;;;;;33.27;31.27;;;19.70;99.90;;;;;;5094201;28;20841;-72
2021/07/25 00:14:48;;;;;;;33.13;30.83;;;19.80;99.90;;;;;;5094188;28;20500;-72
2021/07/25 00:17:15;;;;;;;33.93;31.40;;;19.80;99.90;;;;;;5094027;28;20450;-72
2021/07/25 00:19:41;;;;;;;32.70;30.60;;;19.70;99.90;;;;;;5094057;28;20507;-72
2021/07/25 00:22:09;;;;;;;33.07;30.93;;;19.70;99.90;;;;;;5093358;28;20450;-72
2021/07/25 00:24:37;;;;;;;32.50;30.33;;;19.70;99.90;;;;;;5093607;28;20480;-73
2021/07/25 00:27:05;;;;;;;33.13;30.83;;;19.70;99.90;;;;;;5093884;28;20525;-72
2021/07/25 00:29:32;;;;;;;33.70;31.20;;;19.70;99.90;;;;;;5093613;28;20454;-72
2021/07/25 00:32:01;;;;;;;32.93;30.73;;;19.70;99.90;;;;;;5093507;28;20446;-71
2021/07/25 00:34:29;;;;;;;34.07;31.47;;;19.60;99.90;;;;;;5093842;28;20439;-72
2021/07/25 00:36:56;;;;;;;34.50;31.77;;;19.60;99.90;;;;;;5093903;28;20478;-72
2021/07/25 00:39:23;;;;;;;34.53;32.00;;;19.60;99.90;;;;;;5093547;28;20446;-72
2021/07/25 00:41:49;;;;;;;33.53;30.97;;;19.60;99.90;;;;;;5093553;28;20454;-72
2021/07/25 00:44:16;;;;;;;33.50;31.17;;;19.60;99.90;;;;;;5093531;28;20543;-72
2021/07/25 00:46:45;;;;;;;33.10;30.80;;;19.60;99.90;;;;;;5093413;28;20446;-72
2021/07/25 00:49:13;;;;;;;32.63;30.53;;;19.60;99.90;;;;;;5093184;28;20485;-73
2021/07/25 00:51:40;;;;;;;33.87;31.57;;;19.60;99.90;;;;;;5093413;28;20802;-73
2021/07/25 00:54:08;;;;;;;32.80;30.53;;;19.70;99.90;;;;;;5093163;28;20438;-72
2021/07/25 00:56:35;;;;;;;33.40;31.10;;;19.70;99.90;;;;;;5093231;28;20446;-72
2021/07/25 00:59:01;;;;;;;34.27;31.77;;;19.70;99.90;;;;;;5093293;28;20450;-72
2021/07/25 01:01:28;;;;;;;38.87;36.40;;;19.60;99.90;;;;;;5092870;28;20454;-72
2021/07/25 01:04:09;;;;;;;39.87;37.23;;;19.60;99.90;;;;;;5092812;28;21017;-73
2021/07/25 01:06:51;;;;;;;44.20;41.10;;;19.60;99.90;;;;;;5092801;28;20453;-73
2021/07/25 01:09:26;;;;;;;44.87;41.60;;;19.60;99.90;;;;;;5092863;28;20950;-73
2021/07/25 01:11:56;;;;;;;42.27;39.47;;;19.60;99.90;;;;;;5092912;28;20450;-73
2021/07/25 01:14:27;;;;;;;42.67;39.67;;;19.60;99.90;;;;;;5092719;28;20466;-72
2021/07/25 01:16:53;;;;;;;41.43;38.80;;;19.60;99.90;;;;;;5092698;28;20453;-72
2021/07/25 01:19:20;;;;;;;42.40;39.70;;;19.50;99.90;;;;;;5092674;28;20438;-72
2021/07/25 01:21:48;;;;;;;42.70;39.67;;;19.40;99.90;;;;;;5092660;28;20450;-73
2021/07/25 01:24:15;;;;;;;41.43;38.70;;;19.40;99.90;;;;;;5092707;28;20478;-73
2021/07/25 01:26:44;;;;;;;43.10;40.00;;;19.40;99.90;;;;;;5092515;28;20450;-73
2021/07/25 01:29:12;;;;;;;44.20;41.10;;;19.40;99.90;;;;;;5092567;28;20941;-73
2021/07/25 01:31:41;;;;;;;43.97;41.00;;;19.30;99.90;;;;;;5092365;28;20831;-73
2021/07/25 01:34:10;;;;;;;44.40;41.50;;;19.30;99.90;;;;;;5091485;28;21084;-73
2021/07/25 01:36:39;;;;;;;43.77;40.97;;;19.30;99.90;;;;;;5092579;28;20507;-73
2021/07/25 01:39:07;;;;;;;43.77;40.93;;;19.30;99.90;;;;;;5092404;28;20852;-73
2021/07/25 01:41:43;;;;;;;43.80;40.80;;;19.20;99.90;;;;;;5092135;28;20454;-73
2021/07/25 01:44:09;;;;;;;42.80;39.97;;;19.20;99.90;;;;;;5092277;28;20485;-73
2021/07/25 01:46:36;;;;;;;44.60;41.37;;;19.30;99.90;;;;;;5092376;28;20453;-73
2021/07/25 01:49:03;;;;;;;46.10;42.90;;;19.30;99.90;;;;;;5091942;28;20565;-73
2021/07/25 01:51:30;;;;;;;45.37;42.47;;;19.40;99.90;;;;;;5092145;28;20435;-73
2021/07/25 01:53:56;;;;;;;45.53;42.13;;;19.40;99.90;;;;;;5092077;28;20439;-72
2021/07/25 01:56:24;;;;;;;45.37;42.37;;;19.50;99.90;;;;;;5091833;28;20457;-74
2021/07/25 01:58:51;;;;;;;45.27;42.30;;;19.60;99.90;;;;;;5091975;28;20808;-73
2021/07/25 02:01:18;;;;;;;46.20;42.83;;;19.40;99.90;;;;;;5091906;28;20442;-73
2021/07/25 02:03:44;;;;;;;44.47;41.57;;;19.50;99.90;;;;;;5091906;28;20481;-72
2021/07/25 02:06:11;;;;;;;46.83;43.23;;;19.40;99.90;;;;;;5091618;28;20442;-72
2021/07/25 02:08:38;;;;;;;46.53;43.33;;;19.40;99.90;;;;;;5091932;28;20877;-73
2021/07/25 02:11:04;;;;;;;48.40;45.30;;;19.50;99.90;;;;;;5091797;28;20469;-72
2021/07/25 02:13:32;;;;;;;49.17;45.77;;;19.50;99.90;;;;;;5091599;28;20463;-73
2021/07/25 02:15:59;;;;;;;49.30;45.60;;;19.60;99.90;;;;;;5091704;28;21124;-71
2021/07/25 02:18:26;;;;;;;48.23;45.00;;;19.50;99.90;;;;;;5091734;28;20663;-71
2021/07/25 02:20:52;;;;;;;49.47;45.90;;;19.50;99.90;;;;;;5091802;28;20447;-71
2021/07/25 02:23:19;;;;;;;48.57;45.00;;;19.60;99.90;;;;;;5091703;28;20462;-71
2021/07/25 02:25:46;;;;;;;46.50;43.13;;;19.50;99.90;;;;;;5091538;28;20450;-71
2021/07/25 02:28:13;;;;;;;50.13;46.60;;;19.50;99.90;;;;;;5091268;28;20454;-71
2021/07/25 02:30:41;;;;;;;49.60;45.47;;;19.50;99.90;;;;;;5091233;28;20503;-71
2021/07/25 02:33:08;;;;;;;48.37;45.00;;;19.60;99.90;;;;;;5091034;28;20911;-71
2021/07/25 02:35:34;;;;;;;48.13;44.83;;;19.50;99.90;;;;;;5091349;28;20439;-71
2021/07/25 02:38:01;;;;;;;48.27;44.97;;;19.50;99.90;;;;;;5091133;28;20458;-72
2021/07/25 02:40:28;;;;;;;45.90;42.83;;;19.40;99.90;;;;;;5090951;28;20450;-72
2021/07/25 02:42:55;;;;;;;47.07;43.97;;;19.40;99.90;;;;;;5091132;28;20499;-72
2021/07/25 02:45:21;;;;;;;47.93;44.23;;;19.40;99.90;;;;;;5095001;28;21028;-72
2021/07/25 02:47:50;;;;;;;48.47;44.87;;;19.40;99.90;;;;;;5097693;28;20534;-72
2021/07/25 02:50:16;;;;;;;47.60;44.30;;;19.40;99.90;;;;;;5097806;28;20446;-71
2021/07/25 02:52:43;;;;;;;47.37;44.07;;;19.40;99.90;;;;;;5097701;28;20449;-71
2021/07/25 02:55:11;;;;;;;47.50;44.10;;;19.40;99.90;;;;;;5097676;28;20450;-71
2021/07/25 02:57:37;;;;;;;48.90;45.50;;;19.40;99.90;;;;;;5097732;28;20449;-71
2021/07/25 03:00:05;;;;;;;48.43;45.03;;;19.40;99.90;;;;;;5097654;28;20446;-72
2021/07/25 03:02:32;;;;;;;49.07;45.17;;;19.50;99.90;;;;;;5097599;28;20442;-72
2021/07/25 03:05:00;;;;;;;46.27;43.00;;;19.40;99.90;;;;;;5097556;28;20493;-71
2021/07/25 03:07:27;;;;;;;48.27;44.30;;;19.40;99.90;;;;;;5097481;28;20446;-71
2021/07/25 03:09:54;;;;;;;45.83;42.83;;;19.30;99.90;;;;;;5097578;28;20465;-72
2021/07/25 03:12:20;;;;;;;49.23;45.93;;;19.40;99.90;;;;;;5097535;28;20518;-71
2021/07/25 03:14:47;;;;;;;46.70;43.50;;;19.40;99.90;;;;;;5097571;28;20466;-71
2021/07/25 03:17:14;;;;;;;48.13;44.67;;;19.40;99.90;;;;;;5097532;28;20446;-72
2021/07/25 03:19:40;;;;;;;47.70;44.50;;;19.40;99.90;;;;;;5097428;28;20454;-72
2021/07/25 03:22:10;;;;;;;49.73;46.20;;;19.40;99.90;;;;;;5097400;28;20506;-72
2021/07/25 03:24:36;;;;;;;47.37;44.20;;;19.40;99.90;;;;;;5097303;28;20851;-72
2021/07/25 03:27:03;;;;;;;49.13;45.50;;;19.40;99.90;;;;;;5097257;28;20442;-71
2021/07/25 03:29:30;;;;;;;48.13;44.43;;;19.30;99.90;;;;;;5097221;28;20510;-72
2021/07/25 03:31:57;;;;;;;51.43;47.53;;;19.30;99.90;;;;;;5097260;28;20441;-71
2021/07/25 03:34:24;;;;;;;50.53;46.60;;;19.30;99.90;;;;;;5097392;28;20472;-71
2021/07/25 03:36:50;;;;;;;48.90;45.23;;;19.30;99.90;;;;;;5097320;28;20534;-70
2021/07/25 03:39:21;;;;;;;47.50;44.03;;;19.40;99.90;;;;;;5097232;28;20445;-71
2021/07/25 03:41:48;;;;;;;49.37;45.77;;;19.40;99.90;;;;;;5097204;28;20476;-71
2021/07/25 03:44:14;;;;;;;47.73;44.30;;;19.40;99.90;;;;;;5097119;28;20485;-71
2021/07/25 03:46:41;;;;;;;46.63;42.97;;;19.30;99.90;;;;;;5097166;28;20496;-71
2021/07/25 03:49:08;;;;;;;45.93;42.67;;;19.30;99.90;;;;;;5096964;28;20484;-71
2021/07/25 03:51:36;;;;;;;48.80;44.87;;;19.20;99.90;;;;;;5096985;28;21213;-71
2021/07/25 03:54:05;;;;;;;49.17;45.60;;;19.30;99.90;;;;;;5097065;28;20449;-71
2021/07/25 03:56:34;;;;;;;46.87;43.33;;;19.30;99.90;;;;;;5094763;28;20450;-72
2021/07/25 03:59:00;;;;;;;46.33;42.73;;;19.20;99.90;;;;;;5093914;28;20453;-72
2021/07/25 04:01:27;;;;;;;46.10;42.57;;;19.20;99.90;;;;;;5093738;28;20934;-70
2021/07/25 04:03:54;;;;;;;45.13;41.83;;;19.30;99.90;;;;;;5093741;28;20450;-71
2021/07/25 04:06:20;;;;;;;45.23;42.03;;;19.30;99.90;;;;;;5093707;28;20446;-71
2021/07/25 04:08:47;;;;;;;46.40;42.87;;;19.40;99.90;;;;;;5093783;28;20450;-70
2021/07/25 04:11:17;;;;;;;48.87;45.47;;;19.30;99.90;;;;;;5093669;28;20507;-70
2021/07/25 04:13:45;;;;;;;45.33;42.13;;;19.40;99.90;;;;;;5093535;28;20502;-71
2021/07/25 04:16:12;;;;;;;47.20;43.73;;;19.40;99.90;;;;;;5093588;28;20446;-72
2021/07/25 04:18:39;;;;;;;47.13;43.63;;;19.50;99.90;;;;;;5093619;28;20455;-72
2021/07/25 04:21:05;;;;;;;46.30;42.93;;;19.40;99.90;;;;;;5093454;28;20458;-71
2021/07/25 04:23:32;;;;;;;42.13;39.07;;;19.40;99.90;;;;;;5093528;28;20873;-70
2021/07/25 04:25:59;;;;;;;44.80;41.20;;;19.40;99.90;;;;;;5093257;28;21040;-71
2021/07/25 04:28:26;;;;;;;45.47;42.13;;;19.50;99.90;;;;;;5093297;28;20450;-72
2021/07/25 04:30:55;;;;;;;44.30;41.10;;;19.60;99.90;;;;;;5093290;28;20443;-71
2021/07/25 04:33:22;;;;;;;44.30;41.30;;;19.60;99.90;;;;;;5093230;28;21011;-71
2021/07/25 04:35:49;;;;;;;44.00;41.10;;;19.60;99.90;;;;;;5093243;28;20450;-71
2021/07/25 04:38:17;;;;;;;43.67;40.47;;;19.60;99.90;;;;;;5093156;28;20442;-72
2021/07/25 04:40:48;;;;;;;44.50;41.43;;;19.60;99.90;;;;;;5093134;28;20446;-71
2021/07/25 04:43:17;;;;;;;43.90;40.87;;;19.60;99.90;;;;;;5093196;28;20496;-72
2021/07/25 04:45:50;;;;;;;42.97;40.27;;;19.70;99.90;;;;;;5092909;28;20489;-70
2021/07/25 04:48:26;;;;;;;44.70;41.70;;;19.70;99.90;;;;;;5092999;28;20485;-71
2021/07/25 04:50:58;;;;;;;50.20;46.73;;;19.70;99.90;;;;;;5092876;28;20454;-71
2021/07/25 04:53:26;;;;;;;45.93;42.83;;;19.80;99.90;;;;;;5092990;28;20495;-70
2021/07/25 04:55:58;;;;;;;44.97;42.17;;;19.80;99.90;;;;;;5092712;28;20442;-70
2021/07/25 04:58:30;;;;;;;45.17;42.07;;;19.90;99.90;;;;;;5098107;27;21155;-70
2021/07/25 05:01:00;;;;;;;44.03;41.13;;;19.90;99.90;;;;;;5098224;28;20446;-70
2021/07/25 05:03:32;;;;;;;43.97;41.27;;;20.10;99.90;;;;;;5093530;28;20461;-70
2021/07/25 05:05:59;;;;;;;44.67;41.67;;;20.20;99.90;;;;;;5092978;28;20952;-71
2021/07/25 05:08:27;;;;;;;44.47;41.47;;;20.30;99.90;;;;;;5091947;28;20507;-70
2021/07/25 05:11:00;;;;;;;44.20;41.30;;;20.30;99.90;;;;;;5092842;28;20449;-70
2021/07/25 05:13:31;;;;;;;45.03;42.03;;;20.30;99.90;;;;;;5092704;28;20477;-70
2021/07/25 05:15:57;;;;;;;45.07;42.10;;;20.40;99.90;;;;;;5092964;28;20802;-71
2021/07/25 05:18:31;;;;;;;44.43;41.30;;;20.40;99.90;;;;;;5092846;28;20929;-71
2021/07/25 05:21:04;;;;;;;43.83;41.00;;;20.50;99.90;;;;;;5092722;28;20451;-72
2021/07/25 05:23:38;;;;;;;41.87;39.00;;;20.40;99.90;;;;;;5092731;28;20450;-71
2021/07/25 05:26:09;;;;;;;40.90;38.40;;;20.40;99.90;;;;;;5092447;28;20489;-71
2021/07/25 05:28:38;;;;;;;40.93;38.37;;;20.30;99.90;;;;;;5092518;28;20456;-72
2021/07/25 05:31:07;;;;;;;40.00;37.70;;;20.40;99.90;;;;;;5092536;28;20446;-72
2021/07/25 05:33:36;;;;;;;38.17;35.77;;;20.30;99.90;;;;;;5092576;28;20507;-72
2021/07/25 05:36:03;;;;;;;38.10;35.53;;;20.10;99.90;;;;;;5092370;28;20450;-72
2021/07/25 05:38:29;;;;;;;36.10;33.70;;;20.00;99.90;;;;;;5092450;28;20476;-72
2021/07/25 05:40:56;;;;;;;35.90;33.70;;;19.80;99.90;;;;;;5092453;28;20450;-72
2021/07/25 05:43:23;;;;;;;32.50;30.57;;;19.70;99.90;;;;;;5092122;28;20454;-72
2021/07/25 05:45:49;;;;;;;33.33;31.30;;;19.70;99.90;;;;;;5092182;28;20474;-72
2021/07/25 05:48:16;;;;;;;32.27;30.30;;;19.60;99.90;;;;;;5091934;28;20477;-71
2021/07/25 05:50:44;;;;;;;31.50;29.47;;;19.70;99.90;;;;;;5091834;28;20957;-72
2021/07/25 05:53:11;;;;;;;28.77;26.97;;;19.70;99.90;;;;;;5092031;28;20508;-72
2021/07/25 05:55:38;;;;;;;30.37;28.53;;;19.90;99.90;;;;;;5092028;28;20434;-73
2021/07/25 05:58:04;;;;;;;29.83;27.83;;;20.00;99.90;;;;;;5091939;28;20453;-72
2021/07/25 06:00:31;;;;;;;28.70;26.80;;;20.20;99.90;;;;;;5091950;28;20450;-71
2021/07/25 06:02:58;;;;;;;25.90;24.20;;;20.40;99.90;;;;;;5091627;28;20453;-72
2021/07/25 06:05:26;;;;;;;23.03;21.53;;;20.40;99.90;;;;;;5091737;28;21049;-71
2021/07/25 06:07:55;;;;;;;23.63;21.90;;;20.50;99.90;;;;;;5092046;28;20457;-71
2021/07/25 06:10:23;;;;;;;23.07;21.57;;;20.70;99.90;;;;;;5091763;28;20495;-73
2021/07/25 06:12:51;;;;;;;22.80;21.50;;;20.70;99.90;;;;;;5091449;28;20481;-70
2021/07/25 06:15:17;;;;;;;23.03;21.33;;;20.90;99.90;;;;;;5091022;28;20443;-71
2021/07/25 06:17:44;;;;;;;23.50;21.97;;;21.00;99.90;;;;;;5091249;28;20458;-70
2021/07/25 06:20:12;;;;;;;22.10;20.90;;;21.30;99.90;;;;;;5091193;28;20450;-72
2021/07/25 06:22:40;;;;;;;21.43;20.20;;;21.50;99.90;;;;;;5091358;28;20503;-70
2021/07/25 06:25:10;;;;;;;21.97;20.57;;;21.60;99.90;;;;;;5091138;28;20500;-70
2021/07/25 06:27:37;;;;;;;21.83;20.57;;;21.50;99.90;;;;;;5091303;28;20443;-70
2021/07/25 06:30:04;;;;;;;22.03;20.73;;;21.30;99.90;;;;;;5091267;28;20446;-70
2021/07/25 06:32:31;;;;;;;22.40;21.00;;;21.20;99.90;;;;;;5091182;28;20454;-70
2021/07/25 06:34:58;;;;;;;22.63;21.03;;;21.00;99.90;;;;;;5091099;28;20446;-70
2021/07/25 06:37:24;;;;;;;22.70;21.07;;;21.00;99.90;;;;;;5091014;28;20499;-70
2021/07/25 06:39:51;;;;;;;21.70;20.43;;;21.00;99.90;;;;;;5091163;28;20442;-70
2021/07/25 06:42:19;;;;;;;22.43;21.07;;;21.10;99.90;;;;;;5091028;28;20483;-71
2021/07/25 06:44:46;;;;;;;22.53;20.87;;;21.50;99.90;;;;;;5091018;28;20853;-71
2021/07/25 06:47:12;;;;;;;21.03;19.37;;;22.10;99.90;;;;;;5090746;28;20450;-71
2021/07/25 06:49:39;;;;;;;20.87;19.60;;;22.50;99.90;;;;;;5091029;28;20446;-71
2021/07/25 06:52:07;;;;;;;21.60;20.30;;;22.80;99.90;;;;;;5091083;28;20449;-72
2021/07/25 06:54:34;;;;;;;19.13;18.13;;;23.10;99.90;;;;;;5090904;28;20945;-71
2021/07/25 06:57:00;;;;;;;19.90;18.47;;;23.60;99.90;;;;;;5090855;28;20446;-72
2021/07/25 06:59:28;;;;;;;18.10;17.20;;;24.20;99.90;;;;;;5090847;28;20450;-71
2021/07/25 07:01:55;;;;;;;18.63;17.53;;;24.70;99.90;;;;;;5090761;28;20503;-71
2021/07/25 07:04:22;;;;;;;19.47;18.27;;;24.80;99.90;;;;;;5090938;28;20446;-72
2021/07/25 07:06:48;;;;;;;18.93;17.83;;;24.70;99.90;;;;;;5090667;28;20489;-72
2021/07/25 07:09:15;;;;;;;18.17;17.10;;;24.10;99.90;;;;;;5090688;28;20458;-72
2021/07/25 07:11:41;;;;;;;18.50;17.50;;;24.10;99.90;;;;;;5090774;28;20499;-73
2021/07/25 07:14:09;;;;;;;18.17;16.97;;;24.20;99.90;;;;;;5090617;28;20907;-71
2021/07/25 07:16:37;;;;;;;19.40;18.10;;;24.60;99.90;;;;;;5091087;28;20454;-71
2021/07/25 07:19:03;;;;;;;19.00;17.53;;;25.00;99.90;;;;;;5090785;28;20454;-72
2021/07/25 07:21:30;;;;;;;17.80;16.60;;;25.10;99.90;;;;;;5090730;28;20442;-72
2021/07/25 07:23:57;;;;;;;18.83;17.73;;;25.00;99.90;;;;;;5090636;28;20450;-72
2021/07/25 07:26:24;;;;;;;19.57;17.97;;;24.80;99.90;;;;;;5090541;28;20489;-73
2021/07/25 07:28:51;;;;;;;18.57;17.57;;;24.70;99.90;;;;;;5090760;28;20999;-72
2021/07/25 07:31:17;;;;;;;17.10;16.20;;;24.60;99.90;;;;;;5091312;28;20443;-72
2021/07/25 07:33:45;;;;;;;17.20;16.30;;;24.50;99.90;;;;;;5094444;28;20881;-73
2021/07/25 07:36:12;;;;;;;17.63;16.57;;;24.70;99.90;;;;;;5094191;28;20449;-73
2021/07/25 07:38:39;;;;;;;17.83;16.93;;;24.70;99.90;;;;;;5094149;28;20453;-73
2021/07/25 07:41:05;;;;;;;17.83;16.87;;;24.80;99.90;;;;;;5094291;28;20454;-73
2021/07/25 07:43:32;;;;;;;17.43;16.53;;;25.00;99.90;;;;;;5094253;28;20446;-72
2021/07/25 07:45:59;;;;;;;17.07;16.23;;;25.20;99.90;;;;;;5094092;28;21008;-72
2021/07/25 07:48:26;;;;;;;19.13;17.93;;;25.40;99.90;;;;;;5093903;28;20477;-73
2021/07/25 07:50:54;;;;;;;18.60;17.53;;;25.60;99.90;;;;;;5094154;28;20472;-72
2021/07/25 07:53:21;;;;;;;17.80;17.00;;;25.70;99.90;;;;;;5093976;28;21173;-73
2021/07/25 07:55:48;;;;;;;17.37;16.37;;;26.10;99.90;;;;;;5094046;28;20450;-73
2021/07/25 07:58:15;;;;;;;18.63;17.50;;;26.40;99.90;;;;;;5093917;28;20453;-72
2021/07/25 08:00:42;;;;;;;18.27;17.37;;;26.30;99.90;;;;;;5093959;28;20933;-72
2021/07/25 08:03:08;;;;;;;16.13;15.33;;;26.40;99.90;;;;;;5093861;28;20507;-72
2021/07/25 08:05:35;;;;;;;17.37;16.33;;;26.30;99.90;;;;;;5093878;28;20493;-71
2021/07/25 08:08:04;;;;;;;18.33;17.13;;;26.20;99.90;;;;;;5093755;28;20485;-72
2021/07/25 08:10:31;;;;;;;17.60;16.63;;;26.20;99.90;;;;;;5093806;28;20487;-72
2021/07/25 08:12:58;;;;;;;18.77;17.60;;;26.30;99.90;;;;;;5093593;28;20474;-72
2021/07/25 08:15:24;;;;;;;18.47;17.40;;;26.60;99.90;;;;;;5093515;28;20473;-73
2021/07/25 08:17:51;;;;;;;17.63;16.83;;;27.00;99.90;;;;;;5093555;28;20532;-73
2021/07/25 08:20:18;;;;;;;17.23;16.33;;;27.50;99.90;;;;;;5093430;28;21171;-73
2021/07/25 08:22:45;;;;;;;17.43;16.63;;;27.70;99.90;;;;;;5093355;28;20457;-73
2021/07/25 08:25:13;;;;;;;17.13;16.10;;;27.90;99.90;;;;;;5093255;28;20457;-73
2021/07/25 08:27:40;;;;;;;17.50;16.70;;;28.10;99.90;;;;;;5093567;28;20446;-73
2021/07/25 08:30:07;;;;;;;16.77;15.97;;;27.60;99.90;;;;;;5093407;28;20446;-72
2021/07/25 08:32:34;;;;;;;16.50;15.73;;;27.40;99.90;;;;;;5093394;28;20867;-72
2021/07/25 08:35:01;;;;;;;17.57;16.47;;;27.20;99.90;;;;;;5093210;28;20457;-72
2021/07/25 08:37:28;;;;;;;17.30;16.40;;;27.40;99.90;;;;;;5093237;28;20446;-73
2021/07/25 08:39:55;;;;;;;16.70;15.90;;;27.20;99.90;;;;;;5093157;28;20454;-73
2021/07/25 08:42:25;;;;;;;15.77;15.07;;;27.20;99.90;;;;;;5092801;28;20450;-73
2021/07/25 08:44:53;;;;;;;17.87;16.77;;;27.10;99.90;;;;;;5093056;28;20454;-72
2021/07/25 08:47:40;;;;;;;16.20;15.40;;;27.00;99.90;;;;;;5092774;28;20489;-72
2021/07/25 08:50:13;;;;;;;16.70;15.80;;;26.80;99.90;;;;;;5092965;28;20446;-73
2021/07/25 08:52:42;;;;;;;17.60;16.70;;;26.40;99.90;;;;;;5092687;28;20450;-73
2021/07/25 08:55:11;;;;;;;16.57;15.57;;;26.10;99.90;;;;;;5092631;28;20450;-72
2021/07/25 08:57:41;;;;;;;18.30;17.20;;;26.10;99.90;;;;;;5092783;28;20822;-73
2021/07/25 09:00:10;;;;;;;16.80;15.83;;;25.90;99.90;;;;;;5092784;28;20503;-73
2021/07/25 09:02:38;;;;;;;16.40;15.50;;;25.90;99.90;;;;;;5092107;28;20455;-72
2021/07/25 09:05:07;;;;;;;17.07;16.27;;;25.90;99.90;;;;;;5092240;28;20446;-72
2021/07/25 09:07:34;;;;;;;16.27;15.37;;;25.70;99.90;;;;;;5092482;28;20482;-73
2021/07/25 09:10:04;;;;;;;15.63;14.83;;;25.70;99.90;;;;;;5092220;28;20867;-72
2021/07/25 09:12:32;;;;;;;16.17;15.27;;;25.60;99.90;;;;;;5092040;28;20856;-71
2021/07/25 09:15:01;;;;;;;16.23;15.37;;;25.60;99.90;;;;;;5092019;28;20446;-72
2021/07/25 09:17:29;;;;;;;16.23;15.40;;;25.70;99.90;;;;;;5092208;28;20446;-72
2021/07/25 09:20:19;;;;;;;16.70;15.77;;;25.90;99.90;;;;;;5092046;28;20454;-72
2021/07/25 09:23:08;;;;;;;16.10;15.30;;;26.10;99.90;;;;;;5092961;28;20461;-72
2021/07/25 09:25:38;;;;;;;15.50;14.60;;;26.10;99.90;;;;;;5092420;28;20450;-72
2021/07/25 09:28:25;;;;;;;17.20;16.20;;;25.90;99.90;;;;;;5091776;28;20784;-72
2021/07/25 09:30:53;;;;;;;16.93;15.93;;;26.10;99.90;;;;;;5091866;28;20468;-72
2021/07/25 09:33:32;;;;;;;17.73;16.80;;;26.10;99.90;;;;;;5091752;28;20457;-73
2021/07/25 09:36:18;;;;;;;17.47;16.37;;;26.00;99.90;;;;;;5091968;28;20479;-72
2021/07/25 09:38:48;;;;;;;17.47;16.47;;;26.10;99.90;;;;;;5091568;28;20545;-73
2021/07/25 09:41:22;;;;;;;18.00;16.80;;;26.00;99.90;;;;;;5091206;28;20547;-72
2021/07/25 09:44:04;;;;;;;20.73;19.20;;;25.40;99.90;;;;;;5091936;28;20437;-72
2021/07/25 09:46:50;;;;;;;19.53;18.37;;;24.90;99.90;;;;;;5091477;28;20493;-72
2021/07/25 09:49:18;;;;;;;19.40;18.20;;;24.40;99.90;;;;;;5091064;28;20722;-73
2021/07/25 09:51:46;;;;;;;25.10;23.27;;;23.80;99.90;;;;;;5091356;28;20493;-70
2021/07/25 09:54:12;;;;;;;32.60;30.90;;;23.40;99.90;;;;;;5090386;28;20461;-70
2021/07/25 09:56:40;;;;;;;34.80;33.00;;;23.00;99.90;;;;;;5091238;28;20460;-70
2021/07/25 09:59:25;;;;;;;35.70;33.57;;;22.90;99.90;;;;;;5090998;28;20459;-70
2021/07/25 10:01:53;;;;;;;34.50;32.70;;;22.80;99.90;;;;;;5091452;28;20802;-69
2021/07/25 10:04:23;;;;;;;35.23;33.43;;;22.70;99.90;;;;;;5091166;28;20446;-69
2021/07/25 10:06:51;;;;;;;33.63;31.50;;;22.80;99.90;;;;;;5091178;28;20481;-70
2021/07/25 10:09:19;;;;;;;32.50;31.00;;;22.80;99.90;;;;;;5090992;28;20446;-70
2021/07/25 10:11:53;;;;;;;32.33;30.67;;;22.80;99.90;;;;;;5091117;28;20446;-71
2021/07/25 10:14:21;;;;;;;31.63;30.03;;;22.70;99.90;;;;;;5090687;28;20466;-70
2021/07/25 10:16:53;;;;;;;31.03;29.60;;;22.80;99.90;;;;;;5094721;28;20937;-71
2021/07/25 10:19:30;;;;;;;31.53;29.93;;;22.70;99.90;;;;;;5100434;28;20450;-72
2021/07/25 10:21:58;;;;;;;29.37;27.87;;;22.60;99.90;;;;;;5091572;28;20430;-71
2021/07/25 10:24:26;;;;;;;28.30;26.90;;;22.60;99.90;;;;;;5090919;28;20997;-73
2021/07/25 10:26:54;;;;;;;29.80;28.23;;;22.70;99.90;;;;;;5091086;28;20481;-71
2021/07/25 10:29:23;;;;;;;26.80;25.30;;;22.80;99.90;;;;;;5091017;28;20458;-71
2021/07/25 10:31:51;;;;;;;25.33;24.13;;;22.80;99.90;;;;;;5091180;28;21025;-71
2021/07/25 10:34:19;;;;;;;26.00;24.60;;;22.80;99.90;;;;;;5091091;28;20450;-72
2021/07/25 10:36:48;;;;;;;28.40;27.00;;;22.70;99.90;;;;;;5091480;28;20442;-72
2021/07/25 10:39:16;;;;;;;27.17;25.87;;;22.60;99.90;;;;;;5090580;28;20926;-71
2021/07/25 10:41:46;;;;;;;28.20;26.50;;;22.60;99.90;;;;;;5091332;28;20454;-71
2021/07/25 10:44:15;;;;;;;26.60;25.40;;;22.50;99.90;;;;;;5091139;28;20446;-70
2021/07/25 10:46:41;;;;;;;26.80;25.40;;;22.40;99.90;;;;;;5090918;28;20481;-71
2021/07/25 10:49:15;;;;;;;27.10;25.70;;;22.40;99.90;;;;;;5090342;28;20508;-71
2021/07/25 10:52:00;;;;;;;27.60;26.30;;;22.60;99.90;;;;;;5090520;28;20984;-71
2021/07/25 10:54:34;;;;;;;26.27;25.17;;;22.70;99.90;;;;;;5091137;28;20442;-71
2021/07/25 10:57:02;;;;;;;27.23;26.03;;;22.60;99.90;;;;;;5090665;28;20442;-71
2021/07/25 10:59:44;;;;;;;26.17;25.07;;;22.60;99.90;;;;;;5091165;28;20503;-70
2021/07/25 11:02:17;;;;;;;25.33;24.10;;;22.70;99.90;;;;;;5090630;28;21059;-71
2021/07/25 11:05:05;;;;;;;26.50;25.10;;;22.70;99.90;;;;;;5090939;28;20454;-70
2021/07/25 11:07:41;;;;;;;26.83;25.63;;;22.80;99.90;;;;;;5094912;28;20482;-70
2021/07/25 11:10:12;;;;;;;25.40;24.23;;;23.00;99.90;;;;;;5094780;28;20458;-69
2021/07/25 11:13:19;;;;;;;26.43;25.30;;;23.10;99.90;;;;;;5094917;28;20444;-70
2021/07/25 11:15:49;;;;;;;26.53;25.33;;;23.20;99.90;;;;;;5095211;28;20447;-70
2021/07/25 11:18:29;;;;;;;26.00;24.67;;;23.30;99.90;;;;;;5094685;28;20452;-73
2021/07/25 11:21:01;;;;;;;27.07;25.57;;;23.40;99.90;;;;;;5094417;28;20454;-71
2021/07/25 11:23:37;;;;;;;25.03;23.93;;;23.50;99.90;;;;;;5094768;28;20457;-71
2021/07/25 11:26:34;;;;;;;24.90;23.70;;;23.70;99.90;;;;;;5094618;28;20446;-71
2021/07/25 11:29:03;;;;;;;24.00;22.80;;;23.50;99.90;;;;;;5094176;28;20799;-71
2021/07/25 11:31:44;;;;;;;21.23;20.03;;;23.40;99.90;;;;;;5092678;28;20442;-71
2021/07/25 11:34:22;;;;;;;17.40;16.53;;;23.70;99.90;;;;;;5094807;28;20449;-71
2021/07/25 11:36:53;;;;;;;17.13;16.33;;;23.90;99.90;;;;;;5094423;28;20789;-71
2021/07/25 11:39:21;;;;;;;16.87;16.03;;;24.20;99.90;;;;;;5094457;28;20446;-71
2021/07/25 11:41:48;;;;;;;16.50;15.63;;;24.70;99.90;;;;;;5092305;28;20469;-72
2021/07/25 11:44:16;;;;;;;16.67;15.77;;;25.10;99.90;;;;;;5110364;28;20827;-72
2021/07/25 11:46:46;;;;;;;16.53;15.73;;;25.50;99.90;;;;;;5113507;28;20480;-72
2021/07/25 11:49:20;;;;;;;16.97;16.17;;;25.90;99.90;;;;;;5113418;28;20559;-73
2021/07/25 11:51:52;;;;;;;18.27;17.40;;;26.10;99.90;;;;;;5111697;28;21013;-73
2021/07/25 11:54:22;;;;;;;18.43;17.50;;;26.20;99.90;;;;;;5113303;28;20446;-72
2021/07/25 11:57:06;;;;;;;17.73;16.83;;;26.10;99.90;;;;;;5113391;28;20483;-72
2021/07/25 11:59:35;;;;;;;16.63;15.83;;;26.10;99.90;;;;;;5112532;28;20819;-73
2021/07/25 12:02:02;;;;;;;17.70;16.47;;;26.10;99.90;;;;;;5110961;28;20446;-72
2021/07/25 12:04:31;;;;;;;17.43;16.50;;;25.30;99.90;;;;;;5113524;28;20442;-72
2021/07/25 12:07:03;;;;;;;18.20;17.07;;;24.70;99.90;;;;;;5112837;28;20477;-72
2021/07/25 12:09:31;;;;;;;17.27;16.07;;;24.80;99.90;;;;;;5113333;28;20487;-72
2021/07/25 12:12:09;;;;;;;17.90;17.10;;;24.80;99.90;;;;;;5112963;28;20437;-71
2021/07/25 12:14:38;;;;;;;18.67;17.57;;;24.80;99.90;;;;;;5112632;28;20453;-72
2021/07/25 12:17:06;;;;;;;19.00;17.80;;;24.80;99.90;;;;;;5112071;28;20986;-71
2021/07/25 12:19:35;;;;;;;18.20;17.20;;;24.50;99.90;;;;;;5112949;28;20805;-71
2021/07/25 12:22:08;;;;;;;17.47;16.57;;;24.40;99.90;;;;;;5110207;28;20456;-72
2021/07/25 12:24:37;;;;;;;18.73;17.73;;;24.30;99.90;;;;;;5112498;28;20461;-72
2021/07/25 12:27:06;;;;;;;18.00;17.10;;;24.30;99.90;;;;;;5112563;28;20482;-72
2021/07/25 12:29:44;;;;;;;18.03;17.17;;;24.10;99.90;;;;;;5112577;28;20527;-71
2021/07/25 12:32:31;;;;;;;17.47;16.57;;;24.10;99.90;;;;;;5111344;28;20441;-72
2021/07/25 12:35:23;;;;;;;20.07;18.53;;;24.00;99.90;;;;;;5112758;28;20441;-72
2021/07/25 12:37:52;;;;;;;17.73;16.83;;;23.90;99.90;;;;;;5111579;28;20494;-72